Thomasville, Missouri
Current Conditions -  °F | °C
As of 8:53 AM on Thursday 30 Oct 2014 (Local Time) from KUNO Reporting Station
Clear Clear  
Wind Chill: 45°   Ceiling: Unl
Heat Index: 47°   Visibility: 10mi
Dew Point: 33°   Wind: 5mph
Humidity: 59%   Direction: 170°S
Pressure: 30.15"   Gusts: NA
Location:  36.9122°N, 91.496°W
Report Text: KUNO 301353Z AUTO 17004KT 10SM CLR 08/01 A3015 RMK AO2 SLP211 T00830006 $
Loading
Personal Weather Stations






























Interactive Weather Map
Tropical Storm Tracking
New forecast layout! Learn more

10-Day Weather Forecast

Advertisements
Track Severe Weather on mobile